createdAt,value
2018-11-20T15:36:19.604Z,14.90
2018-11-20T15:39:05.504Z,16.07
2018-11-20T15:42:11.763Z,14.83
2018-11-20T15:44:59.538Z,15.00
2018-11-20T15:47:47.437Z,15.30
2018-11-20T15:50:40.771Z,19.23
2018-11-20T15:53:24.781Z,16.80
2018-11-20T15:56:11.829Z,14.07
2018-11-20T15:59:10.815Z,20.90
2018-11-20T16:01:56.404Z,23.57
2018-11-20T16:04:34.555Z,25.10
2018-11-20T16:07:20.377Z,21.33
2018-11-20T16:10:00.122Z,24.80
2018-11-20T16:12:45.740Z,23.20
2018-11-20T16:15:35.790Z,22.33
2018-11-20T16:18:25.800Z,24.47
2018-11-20T16:21:12.952Z,26.53
2018-11-20T16:24:18.246Z,22.10
2018-11-20T16:27:13.709Z,23.57
2018-11-20T16:29:59.570Z,27.73
2018-11-20T16:33:01.969Z,27.53
2018-11-20T16:35:47.650Z,28.30
2018-11-20T16:38:37.712Z,22.37
2018-11-20T16:41:22.438Z,25.63
2018-11-20T16:44:21.788Z,23.57
2018-11-20T16:47:11.636Z,35.10
2018-11-20T16:49:59.049Z,22.17
2018-11-20T16:52:59.453Z,25.63
2018-11-20T16:55:35.053Z,23.77
2018-11-20T16:58:20.951Z,26.30
2018-11-20T17:01:06.649Z,22.00
2018-11-20T17:03:52.572Z,23.10
2018-11-20T17:06:57.976Z,22.83
2018-11-20T17:09:42.730Z,24.70
2018-11-20T17:12:29.177Z,25.13
2018-11-20T17:15:25.031Z,24.80
2018-11-20T17:18:12.686Z,23.30
2018-11-20T17:20:59.728Z,24.70
2018-11-20T17:23:45.167Z,22.27
2018-11-20T17:26:31.004Z,22.83
2018-11-20T17:29:24.210Z,19.90
2018-11-20T17:32:14.286Z,18.53
2018-11-20T17:35:07.659Z,20.77
2018-11-20T17:37:53.370Z,21.37
2018-11-20T17:40:52.645Z,20.37
2018-11-20T17:43:39.760Z,23.73
2018-11-20T17:46:41.897Z,21.87
2018-11-20T17:49:27.585Z,24.33
2018-11-20T17:52:13.361Z,17.77
2018-11-20T17:55:18.647Z,19.17
2018-11-20T17:58:04.329Z,21.13
2018-11-20T18:00:50.271Z,18.00
2018-11-20T18:03:40.408Z,17.07
2018-11-20T18:06:36.540Z,16.30
2018-11-20T18:09:17.373Z,16.47
2018-11-20T18:12:04.482Z,15.00
2018-11-20T18:14:54.718Z,15.70
2018-11-20T18:17:40.828Z,16.43
2018-11-20T18:20:30.883Z,17.23
2018-11-20T18:23:15.479Z,17.07
2018-11-20T18:25:54.967Z,13.50
2018-11-20T18:28:45.302Z,13.07
2018-11-20T18:31:19.685Z,16.50
2018-11-20T18:34:06.771Z,17.60
2018-11-20T18:37:06.333Z,13.63
2018-11-20T18:39:53.494Z,12.67
2018-11-20T18:45:43.862Z,15.50
2018-11-20T18:48:31.011Z,15.10
2018-11-20T18:51:16.693Z,12.37
2018-11-20T18:54:02.519Z,14.47
2018-11-20T18:56:49.750Z,13.57
2018-11-20T18:59:39.562Z,15.90
2018-11-20T19:02:32.779Z,12.37
2018-11-20T19:10:56.728Z,32.50
2018-11-20T19:13:55.775Z,22.93
2018-11-20T19:16:45.498Z,12.60
2018-11-20T19:19:35.299Z,18.10
2018-11-20T19:22:26.780Z,16.77
2018-11-20T19:25:12.301Z,14.67
2018-11-20T19:27:58.119Z,19.80
2018-11-20T19:30:57.451Z,24.27
2018-11-20T19:33:45.841Z,19.40
2018-11-20T19:36:42.147Z,23.80
2018-11-20T19:39:29.398Z,18.73
2018-11-20T19:42:22.857Z,21.10
2018-11-20T19:45:08.539Z,26.83
2018-11-20T19:48:01.594Z,16.20
2018-11-20T19:51:00.799Z,19.97
2018-11-20T19:53:48.438Z,18.60
2018-11-20T19:56:35.795Z,12.33
2018-11-20T19:59:22.948Z,15.60
2018-11-20T20:02:08.715Z,15.80
2018-11-20T20:04:54.840Z,16.80
2018-11-20T20:07:40.657Z,13.70
2018-11-20T20:10:34.002Z,16.67
2018-11-20T20:13:17.168Z,11.70
2018-11-20T20:16:03.143Z,11.10
2018-11-20T20:18:59.080Z,15.27
2018-11-20T20:21:44.732Z,16.47
2018-11-20T20:24:38.052Z,11.03
2018-11-20T20:27:28.085Z,13.97
2018-11-20T20:30:30.253Z,11.67
2018-11-20T20:33:16.064Z,13.80
2018-11-20T20:35:58.661Z,9.95
2018-11-20T20:38:45.771Z,13.17
2018-11-20T20:41:41.621Z,11.10
2018-11-20T20:44:43.762Z,12.00
2018-11-20T20:47:31.019Z,17.43
2018-11-20T20:50:11.042Z,11.33
2018-11-20T20:53:07.182Z,11.90
2018-11-20T20:55:52.819Z,14.87
2018-11-20T20:58:40.109Z,13.30
2018-11-20T21:01:29.978Z,10.80
2018-11-20T21:04:17.477Z,10.17
2018-11-20T21:07:03.464Z,13.30
2018-11-20T21:10:09.003Z,11.33
2018-11-20T21:12:43.777Z,12.10
2018-11-20T21:15:33.748Z,8.73
2018-11-20T21:18:12.368Z,12.10
2018-11-20T21:21:08.396Z,10.10
2018-11-20T21:23:54.198Z,10.80
2018-11-20T21:26:41.318Z,10.63
2018-11-20T21:29:19.164Z,10.10
2018-11-20T21:32:15.043Z,10.65
2018-11-20T21:34:55.282Z,12.10
2018-11-20T21:37:42.358Z,10.63
2018-11-20T21:40:31.651Z,9.37
2018-11-20T21:43:25.665Z,13.73
2018-11-20T21:46:27.865Z,15.43
2018-11-20T21:49:30.758Z,15.18
2018-11-20T21:52:17.922Z,10.67
2018-11-20T21:55:05.709Z,9.93
2018-11-20T21:57:55.961Z,14.97
2018-11-20T22:00:49.560Z,14.83
2018-11-20T22:03:48.986Z,17.03
2018-11-20T22:06:41.956Z,8.90
2018-11-20T22:09:27.672Z,9.98
2018-11-20T22:12:26.930Z,8.40
2018-11-20T22:15:19.848Z,8.78
2018-11-20T22:18:11.007Z,10.10
2018-11-20T22:20:56.812Z,10.17
2018-11-20T22:23:53.097Z,8.55
2018-11-20T22:26:43.185Z,9.63
2018-11-20T22:29:19.911Z,10.10
2018-11-20T22:32:07.014Z,9.80
2018-11-20T22:34:52.626Z,8.27
2018-11-20T22:37:58.004Z,8.75
2018-11-20T22:40:47.873Z,8.47
2018-11-20T22:43:40.969Z,7.95
2018-11-20T22:46:25.431Z,8.78
2018-11-20T22:49:19.532Z,7.20
2018-11-20T22:52:09.280Z,11.50
2018-11-20T22:54:55.175Z,8.60
2018-11-20T22:57:50.905Z,12.13
2018-11-20T23:00:36.834Z,9.90
2018-11-20T23:03:15.441Z,10.33
2018-11-20T23:06:00.735Z,10.53
2018-11-20T23:08:28.683Z,9.53
2018-11-20T23:10:56.487Z,9.78
2018-11-20T23:13:24.354Z,8.70
2018-11-20T23:15:52.163Z,13.20
2018-11-20T23:18:19.989Z,8.75
2018-11-20T23:20:47.779Z,8.37
2018-11-20T23:23:15.595Z,9.23
2018-11-20T23:25:43.484Z,8.80
2018-11-20T23:28:11.287Z,8.73
2018-11-20T23:30:39.063Z,8.53
2018-11-20T23:33:06.895Z,10.30
2018-11-20T23:35:34.742Z,9.28
2018-11-20T23:38:02.593Z,8.97
2018-11-20T23:40:30.409Z,7.87
2018-11-20T23:42:58.214Z,8.80
2018-11-20T23:45:26.009Z,8.80
2018-11-20T23:47:53.791Z,10.98
2018-11-20T23:50:21.591Z,8.45
2018-11-20T23:52:49.412Z,7.27
2018-11-20T23:55:17.182Z,7.92
2018-11-20T23:57:44.999Z,7.37
